Itagi, Brazil
Current Conditions -  °F | °C
As of 5:33 AM on Monday 22 Dec 2014 (Local Time) from SBQV Reporting Station
Haze Haze  
Wind Chill: 66°   Ceiling: 400
Heat Index: 66°   Visibility: 1.2mi
Dew Point: 66°   Wind: 6mph
Humidity: 100%   Direction: 70°ENE
Pressure: 30.09"   Gusts: NA
Location:  14.18°S, 40.01°W
Report Text: SBQV 220833Z 07005KT 2000 BR BKN004 19/19 Q1019
Loading
Personal Weather Stations






























Interactive Weather Map New forecast layout! Learn more

10-Day Weather Forecast

Advertisements
Track Severe Weather on mobile